Time;durP1;ratioP1;P1;durP2;ratioP2;P2;SDS_P1;SDS_P2;PMS_P1;PMS_P2;Temp;Humidity;BMP_temperature;BMP_pressure;BME280_temperature;BME280_humidity;BME280_pressure;Samples;Min_cycle;Max_cycle;Signal;HPM_P1;HPM_P2
2022/05/28 00:02:36;;;;;;;12.00;2.50;;;;;;;15.49;47.65;98187.63;8496501;27;20236;-76
2022/05/28 00:06:39;;;;;;;8.07;2.60;;;;;;;15.37;48.43;98189.22;8516774;27;20422;-76
2022/05/28 00:10:43;;;;;;;9.53;2.20;;;;;;;15.38;48.17;98193.50;8516660;27;20240;-75
2022/05/28 00:14:46;;;;;;;10.17;2.37;;;;;;;15.17;48.53;98197.38;8516459;27;20228;-76
2022/05/28 00:18:52;;;;;;;7.87;2.40;;;;;;;15.13;48.65;98195.88;8515543;27;20553;-76
2022/05/28 00:22:54;;;;;;;8.27;2.33;;;;;;;15.14;48.35;98200.19;8489624;27;20350;-76
2022/05/28 00:26:58;;;;;;;8.43;2.37;;;;;;;15.07;48.43;98193.66;8482111;28;20524;-76
2022/05/28 00:31:01;;;;;;;9.63;2.67;;;;;;;14.91;48.31;98196.28;8482125;28;20586;-76
2022/05/28 00:35:07;;;;;;;8.10;2.30;;;;;;;15.00;48.02;98188.81;8481768;28;20233;-76
2022/05/28 00:39:10;;;;;;;8.23;2.37;;;;;;;14.94;47.96;98191.75;8481621;28;20528;-76
2022/05/28 00:43:13;;;;;;;9.80;2.60;;;;;;;14.84;47.85;98185.41;8481496;28;20229;-76
2022/05/28 00:47:16;;;;;;;6.77;2.70;;;;;;;14.84;47.78;98188.00;8481538;28;20505;-76
2022/05/28 00:51:23;;;;;;;10.10;2.50;;;;;;;14.75;47.16;98191.16;8481220;28;20395;-76
2022/05/28 00:55:26;;;;;;;6.30;2.40;;;;;;;14.85;46.79;98187.94;8454783;28;20233;-75
2022/05/28 00:59:29;;;;;;;9.70;2.60;;;;;;;14.54;47.91;98194.00;8447284;28;20230;-75
2022/05/28 01:03:37;;;;;;;10.87;2.70;;;;;;;14.59;47.84;98197.25;8447174;28;20556;-75
2022/05/28 01:07:45;;;;;;;10.37;2.40;;;;;;;14.67;47.29;98194.19;8447283;28;20525;-75
2022/05/28 01:11:53;;;;;;;10.47;2.97;;;;;;;14.55;47.89;98193.09;8447165;28;20225;-75
2022/05/28 01:16:00;;;;;;;8.67;2.87;;;;;;;14.58;47.83;98195.56;8447157;28;20418;-76
2022/05/28 01:20:08;;;;;;;10.70;3.50;;;;;;;14.54;48.10;98186.19;8446943;28;20244;-76
2022/05/28 01:24:18;;;;;;;10.83;2.90;;;;;;;14.59;47.65;98185.97;8447144;28;20222;-76
2022/05/28 01:28:25;;;;;;;9.60;3.40;;;;;;;14.54;47.71;98180.16;8447168;28;20248;-76
2022/05/28 01:32:28;;;;;;;12.27;2.83;;;;;;;14.37;47.77;98183.72;8453592;28;20218;-76
2022/05/28 01:36:32;;;;;;;10.70;2.60;;;;;;;14.35;47.99;98182.97;8453590;28;20263;-76
2022/05/28 01:40:35;;;;;;;9.00;2.70;;;;;;;14.37;47.71;98181.94;8453600;28;20241;-76
2022/05/28 01:44:41;;;;;;;15.73;2.63;;;;;;;14.39;47.34;98181.84;8453674;28;20230;-75
2022/05/28 01:48:45;;;;;;;10.00;2.80;;;;;;;14.26;47.79;98179.13;8453241;28;20559;-76
2022/05/28 01:52:48;;;;;;;8.97;2.60;;;;;;;14.17;47.95;98182.22;8453221;28;20228;-76
2022/05/28 01:56:53;;;;;;;8.10;2.77;;;;;;;14.28;47.81;98178.09;8453163;28;20222;-76
2022/05/28 02:00:58;;;;;;;10.57;2.87;;;;;;;14.07;47.85;98174.94;8452870;28;20241;-76
2022/05/28 02:05:02;;;;;;;8.07;2.80;;;;;;;14.10;48.01;98181.72;8452773;28;20296;-76
2022/05/28 02:09:06;;;;;;;7.53;2.40;;;;;;;14.08;47.99;98178.38;8452744;28;20225;-76
2022/05/28 02:13:13;;;;;;;7.60;2.37;;;;;;;14.13;47.99;98175.53;8452534;28;20230;-76
2022/05/28 02:17:22;;;;;;;9.43;2.43;;;;;;;14.08;48.10;98170.56;8452520;28;20234;-76
2022/05/28 02:21:28;;;;;;;12.50;2.93;;;;;;;13.89;48.17;98171.56;8451934;28;20230;-75
2022/05/28 02:25:39;;;;;;;11.53;3.23;;;;;;;13.90;47.99;98177.63;8452117;28;20226;-75
2022/05/28 02:29:43;;;;;;;12.40;3.20;;;;;;;13.87;47.85;98173.41;8452135;28;20377;-76
2022/05/28 02:33:48;;;;;;;7.53;2.50;;;;;;;13.80;47.67;98166.88;8451863;28;20229;-76
2022/05/28 02:37:51;;;;;;;13.73;3.10;;;;;;;13.63;47.98;98166.91;8451918;28;20234;-76
2022/05/28 02:41:54;;;;;;;10.50;3.00;;;;;;;13.71;48.05;98164.75;8450928;28;20230;-76
2022/05/28 02:45:56;;;;;;;13.67;3.20;;;;;;;13.72;47.40;98156.00;8451682;28;20233;-76
2022/05/28 02:50:01;;;;;;;8.20;2.80;;;;;;;13.73;47.29;98168.13;8451563;28;20247;-76
2022/05/28 02:54:04;;;;;;;8.37;3.07;;;;;;;13.48;48.25;98169.44;8451312;28;20229;-76
2022/05/28 02:58:07;;;;;;;11.13;2.83;;;;;;;13.77;47.50;98167.03;8451047;28;20417;-76
2022/05/28 03:02:09;;;;;;;10.63;2.87;;;;;;;13.76;47.42;98161.91;8451076;28;20222;-76
2022/05/28 03:06:14;;;;;;;7.57;2.87;;;;;;;13.77;48.00;98171.41;8451014;28;20233;-76
2022/05/28 03:10:17;;;;;;;10.23;3.30;;;;;;;13.81;48.35;98172.91;8451012;28;20230;-76
2022/05/28 03:14:20;;;;;;;12.37;3.40;;;;;;;13.69;48.39;98175.25;8450600;28;20229;-76
2022/05/28 03:18:23;;;;;;;8.47;2.97;;;;;;;13.68;48.52;98177.94;8466830;28;20236;-75
2022/05/28 03:22:28;;;;;;;11.47;3.20;;;;;;;13.59;48.88;98178.41;8450474;28;20521;-75
2022/05/28 03:26:31;;;;;;;10.93;3.27;;;;;;;13.65;48.42;98185.88;8450415;28;20226;-75
2022/05/28 03:30:34;;;;;;;10.03;3.17;;;;;;;13.54;48.48;98185.66;8450273;28;20422;-76
2022/05/28 03:34:37;;;;;;;9.43;3.00;;;;;;;13.52;48.81;98184.84;8449958;28;20241;-75
2022/05/28 03:38:41;;;;;;;11.63;3.23;;;;;;;13.34;49.34;98187.50;8449809;28;20237;-75
2022/05/28 03:42:44;;;;;;;12.40;2.67;;;;;;;13.58;48.64;98192.38;8449729;28;20252;-76
2022/05/28 03:46:47;;;;;;;9.57;2.87;;;;;;;13.55;48.92;98197.72;8449698;28;20233;-76
2022/05/28 03:50:51;;;;;;;8.50;3.03;;;;;;;13.64;48.95;98197.25;8449513;28;20218;-75
2022/05/28 03:54:55;;;;;;;9.93;3.73;;;;;;;13.57;48.79;98201.06;8448096;28;20232;-76
2022/05/28 03:58:58;;;;;;;10.57;3.57;;;;;;;13.52;49.04;98200.47;8449114;28;20399;-76
2022/05/28 04:03:01;;;;;;;12.57;3.67;;;;;;;13.42;49.50;98205.31;8448793;28;20236;-76
2022/05/28 04:07:04;;;;;;;8.07;2.83;;;;;;;13.48;49.12;98203.25;8449064;28;20413;-76
2022/05/28 04:11:09;;;;;;;13.53;3.20;;;;;;;13.42;49.67;98213.13;8448988;28;20532;-76
2022/05/28 04:15:13;;;;;;;12.40;3.67;;;;;;;13.45;49.19;98207.78;8448805;28;20241;-76
2022/05/28 04:19:16;;;;;;;10.23;3.17;;;;;;;13.48;49.20;98210.22;8448665;28;20237;-76
2022/05/28 04:23:19;;;;;;;10.97;3.10;;;;;;;13.61;48.94;98213.88;8448577;28;20237;-76
2022/05/28 04:27:23;;;;;;;11.13;3.50;;;;;;;13.61;49.26;98231.22;8448015;28;20230;-74
2022/05/28 04:31:26;;;;;;;14.37;3.00;;;;;;;13.46;49.52;98230.25;8448401;28;20517;-75
2022/05/28 04:35:29;;;;;;;9.67;3.17;;;;;;;13.57;49.66;98230.53;8448152;28;20226;-75
2022/05/28 04:39:33;;;;;;;11.60;3.43;;;;;;;13.76;49.25;98229.56;8448066;28;20226;-75
2022/05/28 04:43:37;;;;;;;9.33;2.83;;;;;;;13.66;49.31;98231.81;8447839;28;20226;-75
2022/05/28 04:47:40;;;;;;;9.73;2.90;;;;;;;13.60;49.40;98243.41;8447636;28;20229;-76
2022/05/28 04:51:43;;;;;;;9.47;3.20;;;;;;;13.71;49.56;98241.97;8447820;28;20226;-75
2022/05/28 04:55:46;;;;;;;10.63;2.83;;;;;;;13.78;49.32;98238.13;8447498;28;20229;-76
2022/05/28 04:59:50;;;;;;;8.50;3.00;;;;;;;13.84;49.45;98241.28;8447535;28;20233;-76
2022/05/28 05:03:54;;;;;;;12.27;3.20;;;;;;;13.84;49.53;98243.88;8447135;28;20228;-76
2022/05/28 05:07:56;;;;;;;9.90;2.80;;;;;;;13.98;49.16;98247.50;8447235;28;20225;-75
2022/05/28 05:12:00;;;;;;;10.17;2.93;;;;;;;14.12;49.30;98244.16;8447151;28;20241;-76
2022/05/28 05:16:09;;;;;;;11.83;3.57;;;;;;;14.13;48.61;98249.28;8447083;28;20398;-76
2022/05/28 05:20:13;;;;;;;14.57;3.37;;;;;;;14.10;49.14;98254.63;8447142;28;20234;-76
2022/05/28 05:24:16;;;;;;;10.67;3.10;;;;;;;14.05;48.43;98254.03;8447070;28;20226;-75
2022/05/28 05:28:19;;;;;;;10.57;3.30;;;;;;;14.21;48.47;98249.69;8446925;28;20222;-76
2022/05/28 05:32:23;;;;;;;11.40;3.00;;;;;;;14.03;47.57;98246.34;8446385;28;20230;-74
2022/05/28 05:36:26;;;;;;;8.60;2.93;;;;;;;14.27;47.43;98248.50;8447109;28;20532;-75
2022/05/28 05:40:29;;;;;;;13.60;3.20;;;;;;;14.35;47.82;98255.91;8446712;28;20233;-75
2022/05/28 05:44:32;;;;;;;15.87;3.23;;;;;;;14.24;46.94;98248.66;8446579;28;20391;-76
2022/05/28 05:48:36;;;;;;;11.03;3.13;;;;;;;14.65;47.08;98248.19;8446654;28;20241;-76
2022/05/28 05:52:40;;;;;;;13.63;3.27;;;;;;;14.49;47.13;98250.78;8446623;28;20226;-84
2022/05/28 05:56:50;;;;;;;8.37;2.80;;;;;;;14.67;47.18;98251.53;8444280;28;20233;-76
2022/05/28 06:00:53;;;;;;;11.30;2.73;;;;;;;14.88;47.01;98256.47;8438162;28;20237;-76
2022/05/28 06:04:58;;;;;;;8.67;2.57;;;;;;;14.92;45.70;98245.75;8428959;28;20236;-76
2022/05/28 06:09:01;;;;;;;12.23;3.10;;;;;;;14.78;46.18;98254.38;8428906;28;20230;-76
2022/05/28 06:13:05;;;;;;;13.10;3.07;;;;;;;14.95;46.27;98242.97;8428628;28;20234;-76
2022/05/28 06:17:08;;;;;;;11.63;2.60;;;;;;;15.19;47.03;98243.34;8431737;28;20218;-76
2022/05/28 06:21:12;;;;;;;9.27;2.80;;;;;;;15.07;45.53;98241.44;8434571;28;20297;-76
2022/05/28 06:25:15;;;;;;;10.00;2.87;;;;;;;15.15;46.30;98244.41;8434828;28;20229;-76
2022/05/28 06:29:18;;;;;;;7.37;2.63;;;;;;;15.35;45.43;98245.88;8448851;28;20413;-76
2022/05/28 06:33:21;;;;;;;12.50;3.10;;;;;;;15.57;45.08;98239.34;8451487;28;20222;-76
2022/05/28 06:37:25;;;;;;;14.63;3.60;;;;;;;15.56;45.11;98241.13;8450961;28;20229;-75
2022/05/28 06:41:28;;;;;;;7.33;2.23;;;;;;;15.91;44.64;98234.72;8450837;28;20226;-75
2022/05/28 06:45:31;;;;;;;9.50;2.60;;;;;;;15.92;44.41;98239.03;8451423;28;20226;-76
2022/05/28 06:49:34;;;;;;;12.00;3.17;;;;;;;15.89;44.28;98233.97;8451783;28;20233;-75
2022/05/28 06:53:41;;;;;;;10.70;2.97;;;;;;;15.93;44.32;98236.28;8450594;28;20350;-76
2022/05/28 06:57:44;;;;;;;9.17;2.67;;;;;;;16.20;44.58;98238.13;8451123;28;20230;-76
2022/05/28 07:01:47;;;;;;;8.97;3.10;;;;;;;16.31;44.15;98232.22;8451162;28;20233;-76
2022/05/28 07:05:50;;;;;;;9.67;2.53;;;;;;;16.44;43.29;98238.34;8450844;28;20230;-76
2022/05/28 07:09:54;;;;;;;9.13;2.57;;;;;;;16.59;43.01;98233.91;8459032;28;20226;-75
2022/05/28 07:13:57;;;;;;;13.80;2.80;;;;;;;16.99;42.77;98232.16;8467283;28;20236;-76
2022/05/28 07:18:00;;;;;;;11.00;2.80;;;;;;;17.14;41.52;98226.88;8464265;28;20227;-76
2022/05/28 07:22:03;;;;;;;10.37;2.90;;;;;;;16.75;41.23;98225.91;8461584;28;20236;-76
2022/05/28 07:26:10;;;;;;;10.97;2.67;;;;;;;17.31;41.20;98228.34;8443983;28;20219;-76
2022/05/28 07:30:14;;;;;;;9.53;2.57;;;;;;;17.24;40.73;98232.31;8450203;28;20234;-82
2022/05/28 07:34:17;;;;;;;8.03;2.37;;;;;;;17.22;40.61;98221.94;8450192;28;20240;-78
2022/05/28 07:38:20;;;;;;;12.00;2.70;;;;;;;17.58;41.32;98225.63;8450104;28;20237;-77
2022/05/28 07:42:24;;;;;;;10.33;2.40;;;;;;;17.21;40.70;98225.53;8475033;28;20225;-81
2022/05/28 07:46:29;;;;;;;13.10;2.60;;;;;;;17.18;40.38;98231.78;8483637;28;20548;-84
2022/05/28 07:50:32;;;;;;;9.73;2.60;;;;;;;17.04;40.98;98231.88;8483342;28;20233;-82
2022/05/28 07:54:35;;;;;;;8.27;2.13;;;;;;;18.17;39.18;98218.00;8483165;28;20240;-83
2022/05/28 07:58:40;;;;;;;9.90;3.10;;;;;;;17.79;39.24;98216.25;8482696;28;20235;-82
2022/05/28 08:02:43;;;;;;;9.73;2.07;;;;;;;17.52;40.04;98215.56;8471573;28;20236;-80
2022/05/28 08:06:46;;;;;;;8.43;2.30;;;;;;;17.00;40.24;98214.69;8449132;28;20226;-80
2022/05/28 08:10:49;;;;;;;8.00;2.20;;;;;;;17.20;40.22;98218.59;8448941;28;20236;-80
2022/05/28 08:14:53;;;;;;;9.10;2.60;;;;;;;17.15;39.83;98218.06;8448708;28;20513;-80
2022/05/28 08:18:56;;;;;;;6.60;1.80;;;;;;;17.03;39.59;98222.34;8448822;28;20230;-81
2022/05/28 08:23:11;;;;;;;9.07;2.30;;;;;;;17.10;40.26;98228.00;8448609;28;20516;-80
2022/05/28 08:27:14;;;;;;;8.17;2.80;;;;;;;17.07;41.06;98217.75;8448614;28;20283;-82
2022/05/28 08:31:20;;;;;;;8.27;2.00;;;;;;;16.73;40.99;98233.84;8449141;28;20237;-81
2022/05/28 08:35:24;;;;;;;6.53;2.23;;;;;;;16.63;41.92;98227.53;8456157;28;20260;-80
2022/05/28 08:39:27;;;;;;;14.00;2.87;;;;;;;16.68;41.56;98235.94;8447549;28;20233;-80
2022/05/28 08:43:37;;;;;;;8.67;2.47;;;;;;;16.96;41.33;98236.75;8445510;28;20230;-81
2022/05/28 08:47:51;;;;;;;6.67;1.97;;;;;;;16.95;41.55;98235.09;8443025;28;20296;-80
2022/05/28 08:52:00;;;;;;;11.77;2.40;;;;;;;16.89;41.17;98235.50;8441974;28;20291;-80
2022/05/28 08:56:05;;;;;;;9.87;2.70;;;;;;;17.34;41.45;98230.72;8445928;28;20233;-79
2022/05/28 09:00:12;;;;;;;8.63;2.57;;;;;;;19.21;38.53;98239.31;8444917;28;20254;-79
2022/05/28 09:04:20;;;;;;;5.83;2.00;;;;;;;18.80;37.15;98237.97;8447274;28;20234;-80
2022/05/28 09:08:29;;;;;;;8.67;2.63;;;;;;;18.16;38.15;98234.69;8446855;28;20289;-80
2022/05/28 09:12:39;;;;;;;8.70;2.67;;;;;;;18.33;37.51;98224.75;8446772;28;20238;-80
2022/05/28 09:16:43;;;;;;;10.53;2.67;;;;;;;18.21;38.70;98216.00;8447195;28;20520;-80
2022/05/28 09:20:48;;;;;;;6.50;2.17;;;;;;;19.59;37.34;98223.28;8446961;28;20222;-79
2022/05/28 09:24:52;;;;;;;9.23;2.50;;;;;;;19.08;36.29;98213.19;8447029;28;20230;-79
2022/05/28 09:29:05;;;;;;;6.60;2.13;;;;;;;18.91;37.12;98204.78;8447145;28;20529;-79
2022/05/28 09:33:29;;;;;;;8.23;2.40;;;;;;;18.45;37.68;98217.78;8446936;28;20393;-79
2022/05/28 09:37:39;;;;;;;7.13;2.20;;;;;;;18.07;39.44;98216.16;8462033;28;20412;-79
2022/05/28 09:41:54;;;;;;;9.20;2.20;;;;;;;17.35;44.69;98237.66;8446913;28;20250;-79
2022/05/28 09:46:03;;;;;;;5.77;2.10;;;;;;;17.25;46.34;98224.38;8446574;28;20230;-76
2022/05/28 09:50:18;;;;;;;6.80;2.07;;;;;;;18.28;43.91;98208.53;8447984;28;20426;-75
2022/05/28 09:54:25;;;;;;;6.70;1.93;;;;;;;17.86;42.99;98200.13;8453327;28;20230;-76
2022/05/28 09:58:30;;;;;;;7.87;2.20;;;;;;;19.09;41.50;98204.34;8452557;28;20529;-76
2022/05/28 10:02:35;;;;;;;6.17;2.00;;;;;;;20.21;41.36;98195.66;8452543;28;20230;-76
2022/05/28 10:06:45;;;;;;;6.73;2.10;;;;;;;20.63;38.77;98190.53;8452545;28;20236;-76
2022/05/28 10:10:55;;;;;;;8.03;2.80;;;;;;;20.62;39.10;98180.13;8452651;28;20226;-76
2022/05/28 10:14:59;;;;;;;7.33;2.00;;;;;;;20.40;38.26;98181.03;8452501;28;20241;-76
2022/05/28 10:19:02;;;;;;;7.03;1.70;;;;;;;19.00;37.79;98174.41;8452412;28;20234;-76
2022/05/28 10:23:16;;;;;;;4.50;1.60;;;;;;;18.24;38.29;98180.84;8452383;28;20451;-75
2022/05/28 10:27:31;;;;;;;4.87;1.80;;;;;;;18.02;38.51;98181.56;8452011;28;20237;-76
2022/05/28 10:31:38;;;;;;;5.97;1.57;;;;;;;19.55;32.88;98179.81;8451467;28;20242;-74
2022/05/28 10:35:41;;;;;;;4.87;1.37;;;;;;;20.85;32.22;98173.81;8451730;28;20233;-74
2022/05/28 10:39:44;;;;;;;4.20;1.47;;;;;;;20.62;31.01;98169.59;8451804;28;20526;-75
2022/05/28 10:43:50;;;;;;;6.07;1.53;;;;;;;21.39;32.26;98161.38;8451836;28;20547;-74
2022/05/28 10:48:10;;;;;;;3.97;1.30;;;;;;;20.78;30.86;98164.75;8451556;28;20223;-75
2022/05/28 10:52:19;;;;;;;4.20;1.10;;;;;;;20.04;31.20;98168.09;8451292;28;20413;-74
2022/05/28 10:56:39;;;;;;;5.83;1.50;;;;;;;20.66;31.14;98166.59;8451602;28;20526;-75
2022/05/28 11:00:50;;;;;;;4.90;1.50;;;;;;;21.28;28.19;98156.19;8451248;28;20276;-74
2022/05/28 11:05:00;;;;;;;4.53;1.60;;;;;;;21.63;26.76;98153.19;8450453;28;20225;-74
2022/05/28 11:09:09;;;;;;;3.90;1.33;;;;;;;21.29;29.50;98158.69;8451108;28;20228;-75
2022/05/28 11:13:24;;;;;;;4.23;1.50;;;;;;;22.19;29.56;98162.34;8450677;28;20245;-74
2022/05/28 11:17:42;;;;;;;4.73;1.87;;;;;;;22.19;28.34;98146.50;8450094;28;20229;-74
2022/05/28 11:22:00;;;;;;;2.30;1.20;;;;;;;22.15;26.78;98147.75;8450739;28;20233;-74
2022/05/28 11:26:09;;;;;;;5.73;1.60;;;;;;;22.97;26.63;98140.41;8450470;28;20229;-75
2022/05/28 11:30:15;;;;;;;7.07;1.80;;;;;;;22.00;27.84;98131.50;8450488;28;20222;-74
2022/05/28 11:34:22;;;;;;;4.00;1.70;;;;;;;22.34;27.82;98128.50;8450284;28;20237;-74
2022/05/28 11:38:31;;;;;;;4.70;1.67;;;;;;;22.93;27.20;98126.66;8449624;28;20226;-75
2022/05/28 11:42:39;;;;;;;6.27;1.83;;;;;;;22.16;25.57;98120.44;8449885;28;20229;-75
2022/05/28 11:46:45;;;;;;;3.07;1.30;;;;;;;22.29;27.58;98117.53;8449559;28;20230;-74
2022/05/28 11:55:29;;;;;;;5.53;1.60;;;;;;;22.78;25.56;98109.59;8387658;28;20227;-74
2022/05/28 11:59:33;;;;;;;6.50;1.90;;;;;;;23.58;25.49;98100.28;8449283;28;20236;-74
2022/05/28 12:03:36;;;;;;;4.23;1.80;;;;;;;22.76;24.49;98098.34;8448742;28;20241;-75
2022/05/28 12:07:41;;;;;;;6.27;1.97;;;;;;;21.43;27.30;98101.34;8448699;28;20502;-74
2022/05/28 12:11:47;;;;;;;3.77;1.53;;;;;;;22.78;25.77;98093.75;8448698;28;20230;-74
2022/05/28 12:15:50;;;;;;;5.50;2.07;;;;;;;21.46;27.39;98086.16;8447815;28;20236;-75
2022/05/28 12:19:54;;;;;;;3.13;1.17;;;;;;;22.25;27.68;98082.69;8448274;28;20224;-75
2022/05/28 12:24:10;;;;;;;8.20;1.33;;;;;;;21.60;28.33;98073.56;8448659;28;20404;-75
2022/05/28 12:28:24;;;;;;;6.47;1.70;;;;;;;22.43;26.18;98077.56;8448573;28;20232;-74
2022/05/28 12:32:30;;;;;;;5.80;1.90;;;;;;;22.52;25.96;98069.75;8447584;28;20233;-74
2022/05/28 12:36:40;;;;;;;5.13;1.97;;;;;;;22.77;28.20;98063.03;8447765;28;20229;-74
2022/05/28 12:40:53;;;;;;;6.00;1.97;;;;;;;22.84;27.36;98062.31;8447859;28;20237;-74
2022/05/28 12:44:56;;;;;;;6.43;1.87;;;;;;;22.38;26.93;98049.91;8447781;28;20535;-74
2022/05/28 12:49:06;;;;;;;5.97;1.70;;;;;;;21.64;26.88;98035.44;8447485;28;20228;-74
2022/05/28 12:53:14;;;;;;;3.87;1.70;;;;;;;21.63;26.40;98039.06;8447588;28;20234;-74
2022/05/28 12:57:31;;;;;;;6.70;1.70;;;;;;;21.02;28.67;98035.50;8447222;28;20237;-75
2022/05/28 13:01:36;;;;;;;6.90;1.53;;;;;;;21.95;28.08;98036.19;8447029;28;20221;-74
2022/05/28 13:05:48;;;;;;;5.67;1.87;;;;;;;22.02;26.81;98041.72;8447121;28;20455;-74
2022/05/28 13:09:56;;;;;;;6.03;1.53;;;;;;;22.10;27.24;98025.19;8447159;28;20517;-75
2022/05/28 13:14:36;;;;;;;5.07;1.90;;;;;;;22.78;27.94;98014.56;8446772;28;20230;-74
2022/05/28 13:18:50;;;;;;;4.17;1.60;;;;;;;22.86;26.79;98019.13;8446374;28;20233;-74
2022/05/28 13:23:14;;;;;;;4.97;1.90;;;;;;;22.64;27.23;98021.13;8446126;28;20230;-75
2022/05/28 13:27:34;;;;;;;5.70;1.50;;;;;;;22.87;26.79;98015.50;8446294;28;20229;-74
2022/05/28 13:31:41;;;;;;;5.67;1.43;;;;;;;22.75;26.92;98002.50;8446104;28;20425;-74
2022/05/28 13:35:48;;;;;;;5.37;1.60;;;;;;;22.96;26.35;98001.41;8446352;28;20237;-74
2022/05/28 13:39:55;;;;;;;4.37;1.50;;;;;;;22.25;27.96;97993.00;8446407;28;20542;-75
2022/05/28 13:44:04;;;;;;;4.83;1.70;;;;;;;21.56;26.87;98001.03;8446336;28;20234;-74
2022/05/28 13:48:10;;;;;;;5.73;1.80;;;;;;;22.46;26.70;97986.72;8446202;28;20230;-74
2022/05/28 13:52:16;;;;;;;4.63;1.63;;;;;;;22.26;27.19;97983.31;8446023;28;20234;-74
2022/05/28 13:56:22;;;;;;;3.03;1.37;;;;;;;22.94;27.49;97969.03;8446175;28;20443;-74
2022/05/28 14:00:31;;;;;;;6.87;1.33;;;;;;;22.78;26.07;97972.31;8445807;28;20221;-74
2022/05/28 14:04:42;;;;;;;5.50;2.13;;;;;;;22.24;26.83;97967.59;8446005;28;20237;-74
2022/05/28 14:08:47;;;;;;;4.10;1.50;;;;;;;22.05;25.29;97968.44;8446519;28;20389;-74
2022/05/28 14:12:51;;;;;;;3.73;1.30;;;;;;;22.76;25.05;97961.91;8446030;28;20535;-75
2022/05/28 14:16:56;;;;;;;3.00;1.30;;;;;;;21.81;25.10;97958.31;8445971;28;20222;-75
2022/05/28 14:21:08;;;;;;;3.00;1.30;;;;;;;21.41;25.72;97961.03;8446256;28;20521;-74
2022/05/28 14:25:20;;;;;;;4.17;1.30;;;;;;;22.24;24.77;97951.75;8446429;28;20244;-74
2022/05/28 14:29:32;;;;;;;3.37;1.53;;;;;;;21.19;25.32;97954.19;8452931;28;20517;-75
2022/05/28 14:33:39;;;;;;;2.97;1.30;;;;;;;21.01;26.60;97951.41;8445805;28;20241;-74
2022/05/28 14:37:43;;;;;;;3.83;1.27;;;;;;;20.71;27.63;97950.44;8447595;28;20242;-75
2022/05/28 14:41:48;;;;;;;6.37;1.20;;;;;;;20.24;27.56;97943.00;8451546;28;20229;-74
2022/05/28 14:46:02;;;;;;;3.50;1.23;;;;;;;20.17;28.02;97949.72;8451418;28;20234;-75
2022/05/28 14:50:07;;;;;;;3.10;1.20;;;;;;;20.28;29.40;97944.41;8451440;28;20533;-75
2022/05/28 14:54:21;;;;;;;4.63;1.37;;;;;;;21.33;29.38;97943.28;8451157;28;20282;-74
2022/05/28 14:58:25;;;;;;;3.87;1.20;;;;;;;21.06;28.57;97943.94;8467256;28;20232;-74
2022/05/28 15:02:30;;;;;;;2.70;1.20;;;;;;;20.63;27.86;97942.38;8442276;28;20228;-74
2022/05/28 15:06:33;;;;;;;4.07;1.20;;;;;;;21.72;26.72;97939.88;8417231;28;20244;-74
2022/05/28 15:10:42;;;;;;;3.63;1.33;;;;;;;21.97;26.97;97930.56;8417101;28;20235;-74
2022/05/28 15:14:45;;;;;;;3.43;1.27;;;;;;;21.65;26.79;97921.16;8416997;28;20541;-75
2022/05/28 15:18:49;;;;;;;3.57;1.27;;;;;;;21.19;27.29;97930.50;8416964;28;20403;-74
2022/05/28 15:22:52;;;;;;;3.53;1.20;;;;;;;20.15;28.42;97924.53;8416629;28;20388;-75
2022/05/28 15:26:56;;;;;;;2.57;1.00;;;;;;;20.05;27.43;97924.50;8416430;28;20235;-75
2022/05/28 15:30:59;;;;;;;2.10;1.03;;;;;;;20.10;27.31;97920.50;8416755;28;20419;-75
2022/05/28 15:35:03;;;;;;;3.87;1.70;;;;;;;20.01;28.55;97923.91;8416344;28;20227;-76
2022/05/28 15:39:06;;;;;;;3.50;1.33;;;;;;;20.03;28.67;97913.25;8415931;28;20235;-75
2022/05/28 15:43:11;;;;;;;2.97;1.20;;;;;;;20.00;28.95;97910.88;8415930;28;20232;-75
2022/05/28 15:47:14;;;;;;;2.33;1.00;;;;;;;19.98;28.20;97911.00;8415921;28;20242;-75
2022/05/28 15:51:17;;;;;;;1.50;1.00;;;;;;;20.28;27.65;97909.41;8415837;28;20554;-77
2022/05/28 15:55:21;;;;;;;4.60;1.30;;;;;;;20.76;27.88;97892.19;8415682;28;20228;-76
2022/05/28 15:59:27;;;;;;;2.60;1.10;;;;;;;20.79;27.45;97891.88;8414335;28;20433;-76
2022/05/28 16:03:30;;;;;;;4.43;1.47;;;;;;;20.66;26.83;97895.59;8432437;28;20285;-74
2022/05/28 16:07:33;;;;;;;2.93;1.17;;;;;;;20.68;26.90;97883.16;8448784;28;20231;-74
2022/05/28 16:11:38;;;;;;;6.10;1.43;;;;;;;20.50;25.30;97879.44;8448776;28;20231;-74
2022/05/28 16:15:42;;;;;;;2.90;1.00;;;;;;;20.48;25.01;97876.94;8448449;28;20236;-73
2022/05/28 16:19:46;;;;;;;4.10;1.43;;;;;;;20.35;25.03;97868.44;8448656;28;20541;-74
2022/05/28 16:23:49;;;;;;;6.20;1.30;;;;;;;19.71;25.61;97865.03;8448162;28;20399;-74
2022/05/28 16:27:58;;;;;;;2.43;1.10;;;;;;;20.01;25.80;97875.75;8448414;28;20228;-75
2022/05/28 16:32:03;;;;;;;2.83;1.20;;;;;;;20.11;25.87;97868.75;8448135;28;20237;-75
2022/05/28 16:36:07;;;;;;;3.60;1.03;;;;;;;20.20;25.93;97867.13;8448242;28;20388;-75
2022/05/28 16:40:11;;;;;;;5.80;1.23;;;;;;;20.27;25.77;97863.00;8448076;28;20227;-75
2022/05/28 16:44:17;;;;;;;4.83;1.20;;;;;;;20.34;26.94;97858.91;8448066;28;20240;-75
2022/05/28 16:48:22;;;;;;;2.20;1.13;;;;;;;19.93;25.39;97868.50;8447816;28;20227;-74
2022/05/28 16:52:25;;;;;;;4.10;1.00;;;;;;;19.70;26.40;97867.78;8447579;28;20224;-77
2022/05/28 16:56:31;;;;;;;3.67;1.00;;;;;;;19.58;25.45;97868.81;8447875;28;20557;-75
2022/05/28 17:00:34;;;;;;;3.73;1.10;;;;;;;19.77;26.20;97860.25;8447173;28;20245;-75
2022/05/28 17:04:39;;;;;;;2.43;1.03;;;;;;;19.66;26.56;97859.31;8447500;28;20226;-75
2022/05/28 17:08:45;;;;;;;1.80;1.00;;;;;;;19.29;26.88;97857.09;8447433;28;20227;-74
2022/05/28 17:12:48;;;;;;;2.07;1.10;;;;;;;19.34;26.67;97859.34;8447184;28;20560;-74
2022/05/28 17:16:51;;;;;;;2.30;0.97;;;;;;;19.19;27.20;97864.09;8447436;28;20225;-75
2022/05/28 17:20:57;;;;;;;2.57;1.10;;;;;;;19.17;27.61;97862.53;8447250;28;20232;-75
2022/05/28 17:25:00;;;;;;;4.00;1.07;;;;;;;19.09;27.24;97860.50;8446855;28;20234;-74
2022/05/28 17:29:03;;;;;;;1.87;0.90;;;;;;;19.14;27.08;97864.44;8447018;28;20249;-74
2022/05/28 17:33:08;;;;;;;4.27;1.10;;;;;;;19.18;28.21;97865.03;8447022;28;20218;-74
2022/05/28 17:37:17;;;;;;;2.67;1.23;;;;;;;19.15;28.73;97867.88;8446878;28;20553;-74
2022/05/28 17:41:21;;;;;;;3.20;1.30;;;;;;;19.15;29.48;97865.25;8446703;28;20227;-75
2022/05/28 17:45:24;;;;;;;2.17;1.00;;;;;;;19.10;29.58;97868.28;8462534;28;20228;-74
2022/05/28 17:49:28;;;;;;;3.20;1.20;;;;;;;18.97;28.79;97867.59;8446621;28;20547;-75
2022/05/28 17:53:32;;;;;;;3.97;1.10;;;;;;;18.97;30.08;97874.63;8446716;28;20225;-74
2022/05/28 17:57:35;;;;;;;4.13;1.10;;;;;;;18.85;30.82;97874.66;8446552;28;20233;-75
2022/05/28 18:01:40;;;;;;;3.73;1.10;;;;;;;18.88;31.08;97869.16;8446310;28;20222;-74
2022/05/28 18:05:43;;;;;;;2.33;1.13;;;;;;;18.68;31.33;97869.91;8446171;28;20301;-74
2022/05/28 18:09:48;;;;;;;3.77;0.90;;;;;;;18.71;31.10;97872.25;8446267;28;20262;-75
2022/05/28 18:13:51;;;;;;;3.40;1.10;;;;;;;18.70;30.78;97873.22;8450362;28;20234;-75
2022/05/28 18:17:55;;;;;;;3.10;1.20;;;;;;;18.69;31.29;97868.91;8452597;28;20255;-75
2022/05/28 18:21:58;;;;;;;3.30;1.33;;;;;;;18.51;30.37;97866.78;8452600;28;20230;-75
2022/05/28 18:26:02;;;;;;;8.90;1.60;;;;;;;18.41;31.12;97865.00;8452034;28;20230;-75
2022/05/28 18:30:07;;;;;;;3.50;1.47;;;;;;;18.35;30.87;97861.06;8452159;28;20229;-75
2022/05/28 18:34:10;;;;;;;4.07;1.30;;;;;;;18.34;31.46;97867.28;8451757;28;20396;-75
2022/05/28 18:38:15;;;;;;;7.60;1.33;;;;;;;18.26;30.64;97877.50;8451644;28;20233;-75
2022/05/28 18:42:20;;;;;;;5.23;1.90;;;;;;;18.18;31.07;97872.84;8451566;28;20226;-74
2022/05/28 18:46:23;;;;;;;6.63;1.90;;;;;;;18.15;31.03;97873.94;8451123;28;20238;-74
2022/05/28 18:50:28;;;;;;;3.93;1.20;;;;;;;18.01;31.56;97868.94;8451527;28;20293;-74
2022/05/28 18:54:31;;;;;;;3.90;1.20;;;;;;;18.00;31.68;97869.88;8451492;28;20233;-75
2022/05/28 18:58:35;;;;;;;3.77;1.07;;;;;;;17.89;31.79;97875.91;8451232;28;20227;-75
2022/05/28 19:02:38;;;;;;;5.00;1.43;;;;;;;17.80;31.87;97868.75;8451005;28;20230;-75
2022/05/28 19:06:44;;;;;;;5.43;3.13;;;;;;;17.79;32.28;97875.75;8450436;28;20241;-74
2022/05/28 19:10:47;;;;;;;5.63;3.40;;;;;;;17.72;32.75;97866.69;8450882;28;20249;-75
2022/05/28 19:14:53;;;;;;;6.10;2.00;;;;;;;17.64;33.36;97863.81;8450404;28;20226;-75
2022/05/28 19:18:56;;;;;;;3.87;1.80;;;;;;;17.66;33.07;97869.75;8450296;28;20524;-75